createdAt,value
2022-09-13T00:02:29.859Z,4.22
2022-09-13T00:05:09.872Z,4.70
2022-09-13T00:07:56.790Z,4.30
2022-09-13T00:10:37.566Z,3.97
2022-09-13T00:13:23.790Z,4.00
2022-09-13T00:16:05.159Z,4.63
2022-09-13T00:18:52.793Z,4.68
2022-09-13T00:21:32.837Z,4.80
2022-09-13T00:24:19.785Z,4.32
2022-09-13T00:27:06.782Z,4.40
2022-09-13T00:29:53.848Z,4.47
2022-09-13T00:32:33.795Z,5.05
2022-09-13T00:35:20.845Z,4.72
2022-09-13T00:38:00.810Z,5.10
2022-09-13T00:40:47.839Z,5.18
2022-09-13T00:43:58.806Z,4.80
2022-09-13T00:46:50.507Z,4.72
2022-09-13T00:49:36.816Z,5.13
2022-09-13T00:52:26.817Z,4.35
2022-09-13T00:55:30.866Z,5.07
2022-09-13T00:58:28.806Z,4.95
2022-09-13T01:01:10.933Z,4.97
2022-09-13T01:03:57.801Z,4.70
2022-09-13T01:06:40.869Z,5.10
2022-09-13T01:09:27.805Z,5.03
2022-09-13T01:12:23.626Z,4.85
2022-09-13T01:15:11.805Z,4.95
2022-09-13T01:17:52.866Z,5.22
2022-09-13T01:21:18.802Z,5.32
2022-09-13T01:24:31.792Z,5.20
2022-09-13T01:27:37.820Z,5.13
2022-09-13T01:30:23.954Z,5.38
2022-09-13T01:33:30.802Z,6.07
2022-09-13T01:36:10.869Z,5.95
2022-09-13T01:39:15.788Z,6.28
2022-09-13T01:45:27.845Z,6.70
2022-09-13T01:48:34.826Z,6.05
2022-09-13T01:51:33.100Z,6.63
2022-09-13T01:54:28.835Z,6.63
2022-09-13T01:57:53.015Z,6.60
2022-09-13T02:00:35.818Z,7.03
2022-09-13T02:03:31.133Z,6.90
2022-09-13T02:06:24.800Z,7.00
2022-09-13T02:09:21.280Z,6.75
2022-09-13T02:12:07.798Z,7.20
2022-09-13T02:15:04.759Z,6.90
2022-09-13T02:18:07.813Z,6.75
2022-09-13T02:20:58.870Z,6.47
2022-09-13T02:23:44.805Z,6.63
2022-09-13T02:26:41.821Z,8.32
2022-09-13T02:29:31.892Z,7.20
2022-09-13T02:32:36.825Z,7.28
2022-09-13T02:38:18.806Z,6.97
2022-09-13T02:41:14.997Z,6.82
2022-09-13T02:43:59.834Z,7.32
2022-09-13T02:47:02.090Z,7.32
2022-09-13T02:50:20.808Z,7.78
2022-09-13T02:53:10.869Z,8.00
2022-09-13T02:56:12.817Z,8.05
2022-09-13T02:59:12.888Z,8.57
2022-09-13T03:02:14.868Z,7.80
2022-09-13T03:07:41.867Z,7.28
2022-09-13T03:10:29.801Z,8.38
2022-09-13T03:13:33.846Z,8.23
2022-09-13T03:16:58.873Z,8.68
2022-09-13T03:19:55.813Z,9.10
2022-09-13T03:22:54.418Z,8.32
2022-09-13T03:26:11.833Z,9.48
2022-09-13T03:29:31.383Z,8.25
2022-09-13T03:32:30.824Z,9.10
2022-09-13T03:35:41.822Z,9.20
2022-09-13T03:38:36.984Z,9.10
2022-09-13T03:41:25.850Z,8.27
2022-09-13T03:44:10.576Z,8.70
2022-09-13T03:46:59.843Z,7.75
2022-09-13T03:49:40.721Z,8.82
2022-09-13T03:52:27.825Z,8.20
2022-09-13T03:55:08.616Z,8.30
2022-09-13T03:57:54.862Z,8.52
2022-09-13T04:00:41.874Z,7.95
2022-09-13T04:03:21.821Z,8.35
2022-09-13T04:06:08.905Z,8.15
2022-09-13T04:08:49.975Z,7.90
2022-09-13T04:11:38.876Z,7.78
2022-09-13T04:14:18.942Z,7.40
2022-09-13T04:17:05.847Z,7.13
2022-09-13T04:19:47.118Z,7.63
2022-09-13T04:22:33.857Z,8.25
2022-09-13T04:25:27.832Z,8.70
2022-09-13T04:28:15.817Z,8.23
2022-09-13T04:30:56.893Z,7.75
2022-09-13T04:33:43.842Z,8.35
2022-09-13T04:36:24.024Z,7.88
2022-09-13T04:39:10.850Z,8.85
2022-09-13T04:41:54.422Z,8.45
2022-09-13T04:44:40.853Z,8.35
2022-09-13T04:47:21.752Z,9.23
2022-09-13T04:50:08.849Z,8.82
2022-09-13T04:52:55.864Z,8.50
2022-09-13T04:55:36.796Z,8.88
2022-09-13T04:58:23.873Z,8.15
2022-09-13T05:01:06.263Z,8.40
2022-09-13T05:03:52.864Z,8.07
2022-09-13T05:06:39.886Z,7.65
2022-09-13T05:09:20.849Z,8.25
2022-09-13T05:12:01.453Z,8.10
2022-09-13T05:14:47.825Z,8.80
2022-09-13T05:17:30.356Z,8.55
2022-09-13T05:20:17.821Z,8.55
2022-09-13T05:23:04.848Z,9.82
2022-09-13T05:25:51.888Z,10.73
2022-09-13T05:28:34.841Z,10.73
2022-09-13T05:31:31.934Z,11.32
2022-09-13T05:34:21.824Z,10.43
2022-09-13T05:37:02.035Z,10.25
2022-09-13T05:40:10.119Z,11.85
2022-09-13T05:42:48.915Z,11.23
2022-09-13T05:45:35.842Z,9.80
2022-09-13T05:48:22.845Z,8.90
2022-09-13T05:51:20.910Z,9.90
2022-09-13T05:54:08.848Z,9.70
2022-09-13T05:56:57.470Z,11.63
2022-09-13T05:59:37.835Z,10.77
2022-09-13T06:02:25.007Z,8.52
2022-09-13T06:05:59.220Z,9.20
2022-09-13T06:08:39.742Z,9.88
2022-09-13T06:11:28.173Z,8.90
2022-09-13T06:14:09.646Z,8.60
2022-09-13T06:16:56.207Z,7.93
2022-09-13T06:19:43.316Z,8.27
2022-09-13T06:22:23.189Z,8.23
2022-09-13T06:25:10.196Z,8.82
2022-09-13T06:27:50.340Z,8.18
2022-09-13T06:30:37.186Z,8.52
2022-09-13T06:33:24.195Z,8.23
2022-09-13T06:36:20.383Z,8.38
2022-09-13T06:39:00.198Z,8.07
2022-09-13T06:41:40.673Z,8.13
2022-09-13T06:44:27.186Z,10.55
2022-09-13T06:47:14.250Z,10.18
2022-09-13T06:49:54.189Z,10.30
2022-09-13T06:52:34.697Z,9.77
2022-09-13T06:55:21.192Z,10.95
2022-09-13T06:58:08.210Z,9.57
2022-09-13T07:00:50.074Z,12.45
2022-09-13T07:03:39.173Z,13.35
2022-09-13T07:06:32.293Z,8.80
2022-09-13T07:09:16.229Z,9.90
2022-09-13T07:12:03.276Z,9.50
2022-09-13T07:14:43.189Z,9.35
2022-09-13T07:17:31.607Z,9.35
2022-09-13T07:20:18.204Z,11.13
2022-09-13T07:23:05.306Z,10.40
2022-09-13T07:25:45.219Z,9.10
2022-09-13T07:28:35.325Z,9.00
2022-09-13T07:31:16.245Z,10.35
2022-09-13T07:34:05.192Z,9.18
2022-09-13T07:36:53.205Z,9.70
2022-09-13T07:39:40.234Z,10.57
2022-09-13T07:42:20.245Z,8.63
2022-09-13T07:45:07.201Z,9.60
2022-09-13T07:47:47.248Z,8.20
2022-09-13T07:50:34.217Z,8.23
2022-09-13T07:53:21.201Z,7.88
2022-09-13T07:56:19.237Z,7.07
2022-09-13T07:59:00.698Z,7.82
2022-09-13T08:01:55.324Z,7.10
2022-09-13T08:04:49.212Z,6.63
2022-09-13T08:07:36.244Z,6.97
2022-09-13T08:10:16.226Z,5.93
2022-09-13T08:12:57.102Z,6.25
2022-09-13T08:15:44.290Z,5.60
2022-09-13T08:18:31.283Z,5.60
2022-09-13T08:21:11.213Z,5.25
2022-09-13T08:23:56.735Z,5.20
2022-09-13T08:26:44.225Z,4.53
2022-09-13T08:29:25.406Z,4.68
2022-09-13T08:32:12.218Z,4.57
2022-09-13T08:34:59.252Z,4.05
2022-09-13T08:37:41.219Z,3.80
2022-09-13T08:40:31.210Z,3.90
2022-09-13T08:43:24.240Z,3.30
2022-09-13T08:46:34.591Z,3.20
2022-09-13T08:49:47.226Z,3.33
2022-09-13T08:52:46.722Z,3.17
2022-09-13T08:56:04.452Z,2.75
2022-09-13T08:59:06.270Z,2.63
2022-09-13T09:02:08.272Z,2.60
2022-09-13T09:05:05.328Z,2.28
2022-09-13T09:07:58.250Z,2.25
2022-09-13T09:10:53.219Z,1.90
2022-09-13T09:13:46.242Z,2.10
2022-09-13T09:16:42.928Z,1.88
2022-09-13T09:19:37.221Z,1.70
2022-09-13T09:22:26.276Z,1.60
2022-09-13T09:25:07.224Z,1.83
2022-09-13T09:27:48.019Z,1.70
2022-09-13T09:30:34.293Z,1.40
2022-09-13T09:33:47.158Z,1.58
2022-09-13T09:36:54.221Z,1.58
2022-09-13T09:39:38.969Z,1.33
2022-09-13T09:42:31.236Z,1.30
2022-09-13T09:45:42.270Z,1.33
2022-09-13T09:51:16.266Z,1.30
2022-09-13T09:54:08.964Z,1.35
2022-09-13T09:57:01.235Z,1.33
2022-09-13T09:59:48.308Z,1.30
2022-09-13T10:02:28.269Z,1.20
2022-09-13T10:05:23.238Z,1.38
2022-09-13T10:08:13.249Z,1.20
2022-09-13T10:11:07.235Z,1.23
2022-09-13T10:14:10.958Z,0.90
2022-09-13T10:16:52.267Z,0.98
2022-09-13T10:19:33.485Z,1.33
2022-09-13T10:22:27.262Z,1.30
2022-09-13T10:25:32.058Z,1.42
2022-09-13T10:28:14.277Z,0.98
2022-09-13T10:31:17.709Z,1.10
2022-09-13T10:33:57.602Z,1.20
2022-09-13T10:36:52.683Z,1.40
2022-09-13T10:39:36.420Z,1.00
2022-09-13T10:42:30.258Z,1.10
2022-09-13T10:45:13.286Z,1.10
2022-09-13T10:48:22.257Z,1.10
2022-09-13T10:51:34.362Z,1.10
2022-09-13T10:54:30.284Z,1.15
2022-09-13T10:57:48.243Z,1.30
2022-09-13T11:01:04.446Z,1.30
2022-09-13T11:04:11.277Z,1.40
2022-09-13T11:07:05.593Z,1.20
2022-09-13T11:10:02.238Z,1.15
2022-09-13T11:12:52.522Z,1.20
2022-09-13T11:16:01.236Z,1.00
2022-09-13T11:19:01.288Z,1.17
2022-09-13T11:22:15.006Z,1.20
2022-09-13T11:25:36.269Z,1.40
2022-09-13T11:28:41.797Z,1.20
2022-09-13T11:31:50.332Z,1.33
2022-09-13T11:35:08.259Z,1.30
2022-09-13T11:38:23.265Z,1.20
2022-09-13T11:41:32.318Z,1.23
2022-09-13T11:44:31.291Z,1.23
2022-09-13T11:47:21.257Z,1.20
2022-09-13T11:50:44.355Z,1.45
2022-09-13T11:53:36.258Z,1.08
2022-09-13T11:56:41.347Z,1.23
2022-09-13T11:59:44.258Z,1.08
2022-09-13T12:03:17.325Z,1.02
2022-09-13T12:06:14.317Z,1.00
2022-09-13T12:08:57.269Z,1.20
2022-09-13T12:11:51.316Z,1.20
2022-09-13T12:14:37.274Z,1.20
2022-09-13T12:17:50.322Z,1.10
2022-09-13T12:20:51.248Z,1.15
2022-09-13T12:23:42.356Z,1.33
2022-09-13T12:26:35.302Z,1.25
2022-09-13T12:29:30.347Z,0.63
2022-09-13T12:32:13.261Z,1.27
2022-09-13T12:35:15.322Z,1.27
2022-09-13T12:38:39.286Z,1.23
2022-09-13T12:41:54.252Z,0.95
2022-09-13T12:45:03.695Z,1.17
2022-09-13T12:48:28.265Z,1.20
2022-09-13T12:51:11.393Z,1.30
2022-09-13T12:54:27.279Z,0.90
2022-09-13T12:57:12.329Z,1.42
2022-09-13T13:00:24.272Z,0.98
2022-09-13T13:03:19.183Z,1.00
2022-09-13T13:06:25.287Z,1.10
2022-09-13T13:09:52.621Z,1.00
2022-09-13T13:12:44.268Z,1.10
2022-09-13T13:15:34.330Z,1.08
2022-09-13T13:18:36.279Z,1.10
2022-09-13T13:21:40.283Z,1.20
2022-09-13T13:24:30.266Z,1.05
2022-09-13T13:27:48.408Z,1.10
2022-09-13T13:30:55.309Z,1.10
2022-09-13T13:33:59.365Z,1.10
2022-09-13T13:37:05.320Z,0.90
2022-09-13T13:39:47.295Z,0.85
2022-09-13T13:42:46.294Z,1.00
2022-09-13T13:45:28.067Z,1.10
2022-09-13T13:48:24.317Z,0.90
2022-09-13T13:51:18.278Z,0.90
2022-09-13T13:54:02.418Z,0.93
2022-09-13T13:56:55.294Z,0.95
2022-09-13T13:59:39.328Z,1.10
2022-09-13T14:02:34.317Z,0.95
2022-09-13T14:05:21.273Z,1.00
2022-09-13T14:08:40.310Z,1.00
2022-09-13T14:11:46.598Z,1.00
2022-09-13T14:14:50.298Z,1.00
2022-09-13T14:18:02.384Z,1.05
2022-09-13T14:20:42.303Z,0.90
2022-09-13T14:23:29.290Z,1.13
2022-09-13T14:26:12.552Z,0.82
2022-09-13T14:28:59.311Z,0.70
2022-09-13T14:31:39.454Z,0.90
2022-09-13T14:34:38.311Z,1.00
2022-09-13T14:37:27.158Z,0.93
2022-09-13T14:40:22.391Z,0.70
2022-09-13T14:43:02.353Z,1.00
2022-09-13T14:45:52.299Z,1.00
2022-09-13T14:49:02.407Z,0.80
2022-09-13T14:51:57.296Z,0.80
2022-09-13T14:55:00.298Z,0.80
2022-09-13T14:57:46.970Z,0.80
2022-09-13T15:00:38.367Z,1.00
2022-09-13T15:03:26.310Z,0.80
2022-09-13T15:06:20.305Z,0.77
2022-09-13T15:09:22.302Z,0.80
2022-09-13T15:12:07.350Z,0.90
2022-09-13T15:14:55.306Z,0.80
2022-09-13T15:17:42.299Z,0.73
2022-09-13T15:20:38.318Z,0.70
2022-09-13T15:23:28.572Z,0.75
2022-09-13T15:26:15.328Z,0.93
2022-09-13T15:29:07.393Z,0.90
2022-09-13T15:31:47.400Z,0.82
2022-09-13T15:34:35.320Z,0.80
2022-09-13T15:37:28.304Z,0.80
2022-09-13T15:40:19.555Z,0.70
2022-09-13T15:42:59.297Z,0.80
2022-09-13T15:45:40.019Z,0.80
2022-09-13T15:48:38.311Z,0.85
2022-09-13T15:51:25.368Z,0.73
2022-09-13T15:54:05.320Z,0.90
2022-09-13T15:56:47.335Z,0.80
2022-09-13T15:59:35.330Z,0.95
2022-09-13T16:02:26.343Z,0.98
2022-09-13T16:05:08.449Z,0.75
2022-09-13T16:07:55.320Z,0.90
2022-09-13T16:10:42.309Z,0.88
2022-09-13T16:13:23.312Z,1.00
2022-09-13T16:16:11.359Z,0.82
2022-09-13T16:18:58.379Z,0.90
2022-09-13T16:21:38.328Z,1.27
2022-09-13T16:24:25.401Z,0.85
2022-09-13T16:27:08.321Z,0.88
2022-09-13T16:29:55.388Z,0.77
2022-09-13T16:32:35.327Z,0.90
2022-09-13T16:35:17.026Z,1.00
2022-09-13T16:38:03.329Z,1.02
2022-09-13T16:40:50.381Z,0.93
2022-09-13T16:43:30.326Z,0.90
2022-09-13T16:46:20.386Z,1.25
2022-09-13T16:49:01.365Z,1.08
2022-09-13T16:51:48.338Z,0.90
2022-09-13T16:54:30.180Z,1.05
2022-09-13T16:57:17.325Z,0.85
2022-09-13T16:59:58.790Z,0.98
2022-09-13T17:02:45.436Z,0.90
2022-09-13T17:05:39.321Z,0.93
2022-09-13T17:08:26.334Z,0.80
2022-09-13T17:11:07.393Z,0.82
2022-09-13T17:13:54.319Z,1.05
2022-09-13T17:16:44.403Z,0.90
2022-09-13T17:19:40.333Z,1.08
2022-09-13T17:22:20.426Z,0.93
2022-09-13T17:25:08.349Z,1.10
2022-09-13T17:27:55.341Z,1.02
2022-09-13T17:30:35.837Z,0.80
2022-09-13T17:33:23.324Z,0.70
2022-09-13T17:36:14.353Z,0.88
2022-09-13T17:38:54.382Z,0.80
2022-09-13T17:41:41.309Z,0.98
2022-09-13T17:44:28.349Z,1.00
2022-09-13T17:47:15.373Z,1.05
2022-09-13T17:49:55.333Z,1.00
2022-09-13T17:52:42.325Z,0.80
2022-09-13T17:55:29.347Z,1.45
2022-09-13T17:58:16.333Z,0.85
2022-09-13T18:00:56.387Z,0.80
2022-09-13T18:03:45.353Z,0.77
2022-09-13T18:06:32.334Z,1.05
2022-09-13T18:09:21.355Z,0.80
2022-09-13T18:12:01.408Z,0.82
2022-09-13T18:14:48.351Z,1.00
2022-09-13T18:17:35.345Z,0.80
2022-09-13T18:20:15.974Z,0.80
2022-09-13T18:23:02.342Z,1.00
2022-09-13T18:25:49.336Z,1.10
2022-09-13T18:28:29.400Z,0.93
2022-09-13T18:31:21.428Z,1.00
2022-09-13T18:34:10.418Z,0.93
2022-09-13T18:36:57.343Z,0.98
2022-09-13T18:39:38.260Z,0.80
2022-09-13T18:42:25.349Z,1.13
2022-09-13T18:45:05.847Z,1.00
2022-09-13T18:47:52.357Z,0.80
2022-09-13T18:50:32.383Z,1.00
2022-09-13T18:53:19.362Z,1.13
2022-09-13T18:56:06.714Z,0.98
2022-09-13T18:58:54.791Z,0.70
2022-09-13T19:01:43.881Z,1.15
2022-09-13T19:04:40.770Z,0.88
2022-09-13T19:07:34.727Z,1.00
2022-09-13T19:10:21.779Z,0.95
2022-09-13T19:13:01.336Z,0.90
2022-09-13T19:15:48.391Z,1.20
2022-09-13T19:18:35.349Z,1.30
2022-09-13T19:21:27.600Z,1.15
2022-09-13T19:24:16.761Z,0.85
2022-09-13T19:27:04.392Z,1.02
2022-09-13T19:29:44.477Z,1.27
2022-09-13T19:32:31.388Z,0.90
2022-09-13T19:35:11.681Z,0.93
2022-09-13T19:37:58.356Z,1.00
2022-09-13T19:40:38.836Z,0.90
2022-09-13T19:43:26.350Z,0.88
2022-09-13T19:46:24.471Z,1.02
2022-09-13T19:49:06.770Z,0.90
2022-09-13T19:51:54.486Z,1.10
2022-09-13T19:54:41.663Z,1.08
2022-09-13T19:57:21.695Z,0.85
2022-09-13T20:00:08.362Z,1.00
2022-09-13T20:02:55.365Z,0.93
2022-09-13T20:05:43.370Z,0.95
2022-09-13T20:08:30.458Z,1.30
2022-09-13T20:11:13.353Z,0.95
2022-09-13T20:13:54.439Z,0.80
2022-09-13T20:16:46.372Z,0.98
2022-09-13T20:19:43.773Z,1.10
2022-09-13T20:22:26.445Z,1.10
2022-09-13T20:25:14.477Z,1.00
2022-09-13T20:28:01.365Z,0.95
2022-09-13T20:30:48.424Z,1.10
2022-09-13T20:33:29.374Z,1.10
2022-09-13T20:36:11.673Z,1.00
2022-09-13T20:39:03.630Z,1.00
2022-09-13T20:41:50.380Z,1.00
2022-09-13T20:44:37.381Z,1.30
2022-09-13T20:47:24.364Z,1.08
2022-09-13T20:50:04.454Z,1.23
2022-09-13T20:52:51.488Z,1.17
2022-09-13T20:55:32.625Z,1.10
2022-09-13T20:58:20.487Z,0.85
2022-09-13T21:01:00.478Z,1.08
2022-09-13T21:03:49.394Z,1.10
2022-09-13T21:06:38.379Z,1.13
2022-09-13T21:09:18.953Z,1.00
2022-09-13T21:12:05.377Z,1.05
2022-09-13T21:14:46.330Z,1.00
2022-09-13T21:17:33.398Z,1.00
2022-09-13T21:20:21.439Z,1.30
2022-09-13T21:23:01.364Z,0.82
2022-09-13T21:25:48.382Z,1.00
2022-09-13T21:28:28.976Z,1.40
2022-09-13T21:31:25.447Z,1.35
2022-09-13T21:34:07.426Z,1.20
2022-09-13T21:36:55.377Z,1.15
2022-09-13T21:39:43.407Z,1.30
2022-09-13T21:42:23.878Z,1.30
2022-09-13T21:45:10.381Z,1.27
2022-09-13T21:47:51.090Z,1.33
2022-09-13T21:50:37.384Z,1.40
2022-09-13T21:53:17.865Z,1.20
2022-09-13T21:56:04.384Z,1.27
2022-09-13T21:58:52.673Z,1.20
2022-09-13T22:01:42.487Z,1.20
2022-09-13T22:04:25.307Z,1.23
2022-09-13T22:07:12.365Z,1.40
2022-09-13T22:09:52.841Z,1.00
2022-09-13T22:12:39.380Z,1.33
2022-09-13T22:15:26.437Z,1.20
2022-09-13T22:18:06.385Z,1.15
2022-09-13T22:20:46.878Z,1.40
2022-09-13T22:23:33.382Z,1.17
2022-09-13T22:26:16.750Z,1.60
2022-09-13T22:29:04.386Z,1.17
2022-09-13T22:31:53.370Z,1.30
2022-09-13T22:34:41.397Z,1.17
2022-09-13T22:37:28.493Z,1.17
2022-09-13T22:40:10.433Z,1.02
2022-09-13T22:42:57.450Z,1.60
2022-09-13T22:45:37.445Z,1.25
2022-09-13T22:48:28.443Z,1.27
2022-09-13T22:51:10.390Z,1.40
2022-09-13T22:54:01.380Z,1.50
2022-09-13T22:56:44.433Z,1.42
2022-09-13T22:59:32.814Z,1.40
2022-09-13T23:02:12.494Z,1.17
2022-09-13T23:05:06.388Z,1.67
2022-09-13T23:08:00.406Z,1.30
2022-09-13T23:10:47.492Z,1.30
2022-09-13T23:13:27.382Z,1.30
2022-09-13T23:16:13.208Z,1.45
2022-09-13T23:18:59.390Z,1.30
2022-09-13T23:21:40.846Z,1.42
2022-09-13T23:24:30.381Z,1.30
2022-09-13T23:27:10.895Z,1.30
2022-09-13T23:29:57.389Z,1.52
2022-09-13T23:32:44.443Z,1.20
2022-09-13T23:35:25.400Z,1.38
2022-09-13T23:38:12.416Z,1.33
2022-09-13T23:40:52.453Z,1.10
2022-09-13T23:43:40.396Z,1.30
2022-09-13T23:46:21.509Z,1.50
2022-09-13T23:49:08.398Z,1.75
2022-09-13T23:51:49.090Z,1.23
2022-09-13T23:54:35.417Z,1.30
2022-09-13T23:57:16.421Z,1.40
